sensor_id;sensor_type;location;lat;lon;timestamp;pressure;altitude;pressure_sealevel;temperature;humidity
76195;BME280;64964;48.694;21.206;2023-02-15T00:01:38;99568.34;;;2.89;64.03
76195;BME280;64964;48.694;21.206;2023-02-15T00:04:04;99569.06;;;2.91;63.87
76195;BME280;64964;48.694;21.206;2023-02-15T00:06:30;99568.25;;;2.90;63.63
76195;BME280;64964;48.694;21.206;2023-02-15T00:08:56;99560.50;;;2.89;63.73
76195;BME280;64964;48.694;21.206;2023-02-15T00:11:22;99564.00;;;2.88;63.04
76195;BME280;64964;48.694;21.206;2023-02-15T00:16:37;99553.72;;;2.69;63.38
76195;BME280;64964;48.694;21.206;2023-02-15T00:19:03;99559.25;;;2.63;63.66
76195;BME280;64964;48.694;21.206;2023-02-15T00:21:30;99556.13;;;2.56;63.81
76195;BME280;64964;48.694;21.206;2023-02-15T00:23:57;99559.84;;;2.52;63.90
76195;BME280;64964;48.694;21.206;2023-02-15T00:26:23;99557.38;;;2.49;63.60
76195;BME280;64964;48.694;21.206;2023-02-15T00:28:48;99546.34;;;2.44;63.81
76195;BME280;64964;48.694;21.206;2023-02-15T00:31:14;99548.41;;;2.37;63.98
76195;BME280;64964;48.694;21.206;2023-02-15T00:33:39;99544.44;;;2.30;63.94
76195;BME280;64964;48.694;21.206;2023-02-15T00:36:07;99543.13;;;2.21;64.37
76195;BME280;64964;48.694;21.206;2023-02-15T00:38:33;99539.16;;;2.14;64.17
76195;BME280;64964;48.694;21.206;2023-02-15T00:41:01;99532.56;;;2.07;65.23
76195;BME280;64964;48.694;21.206;2023-02-15T00:43:29;99539.78;;;2.02;65.40
76195;BME280;64964;48.694;21.206;2023-02-15T00:45:55;99540.78;;;1.99;65.42
76195;BME280;64964;48.694;21.206;2023-02-15T00:48:21;99530.59;;;1.95;65.78
76195;BME280;64964;48.694;21.206;2023-02-15T00:50:49;99528.06;;;1.93;65.71
76195;BME280;64964;48.694;21.206;2023-02-15T00:53:15;99527.22;;;1.93;65.84
76195;BME280;64964;48.694;21.206;2023-02-15T00:55:40;99529.00;;;1.92;65.49
76195;BME280;64964;48.694;21.206;2023-02-15T00:58:06;99526.38;;;1.92;65.50
76195;BME280;64964;48.694;21.206;2023-02-15T01:00:32;99527.13;;;1.94;65.71
76195;BME280;64964;48.694;21.206;2023-02-15T01:02:58;99521.91;;;1.94;65.68
76195;BME280;64964;48.694;21.206;2023-02-15T01:05:23;99518.38;;;1.95;65.42
76195;BME280;64964;48.694;21.206;2023-02-15T01:07:49;99521.06;;;1.94;65.42
76195;BME280;64964;48.694;21.206;2023-02-15T01:10:15;99523.09;;;1.89;65.54
76195;BME280;64964;48.694;21.206;2023-02-15T01:12:40;99522.38;;;1.85;65.42
76195;BME280;64964;48.694;21.206;2023-02-15T01:15:06;99520.78;;;1.83;65.78
76195;BME280;64964;48.694;21.206;2023-02-15T01:17:31;99520.84;;;1.81;65.69
76195;BME280;64964;48.694;21.206;2023-02-15T01:19:57;99511.56;;;1.75;66.19
76195;BME280;64964;48.694;21.206;2023-02-15T01:22:22;99517.47;;;1.79;66.11
76195;BME280;64964;48.694;21.206;2023-02-15T01:24:51;99516.84;;;1.74;66.14
76195;BME280;64964;48.694;21.206;2023-02-15T01:27:16;99514.16;;;1.75;65.99
76195;BME280;64964;48.694;21.206;2023-02-15T01:29:42;99518.47;;;1.77;66.04
76195;BME280;64964;48.694;21.206;2023-02-15T01:32:07;99515.03;;;1.76;66.33
76195;BME280;64964;48.694;21.206;2023-02-15T01:34:33;99516.03;;;1.73;66.61
76195;BME280;64964;48.694;21.206;2023-02-15T01:36:58;99506.53;;;1.72;66.33
76195;BME280;64964;48.694;21.206;2023-02-15T01:39:23;99495.25;;;1.72;66.66
76195;BME280;64964;48.694;21.206;2023-02-15T01:41:49;99489.34;;;1.68;67.10
76195;BME280;64964;48.694;21.206;2023-02-15T01:44:51;99480.75;;;1.66;69.02
76195;BME280;64964;48.694;21.206;2023-02-15T01:50:34;99483.44;;;1.65;67.77
76195;BME280;64964;48.694;21.206;2023-02-15T01:53:07;99482.66;;;1.63;67.57
76195;BME280;64964;48.694;21.206;2023-02-15T01:55:39;99483.56;;;1.62;67.09
76195;BME280;64964;48.694;21.206;2023-02-15T01:58:05;99475.06;;;1.58;67.24
76195;BME280;64964;48.694;21.206;2023-02-15T02:00:32;99480.22;;;1.60;66.86
76195;BME280;64964;48.694;21.206;2023-02-15T02:02:59;99472.53;;;1.57;67.19
76195;BME280;64964;48.694;21.206;2023-02-15T02:05:25;99469.00;;;1.58;67.44
76195;BME280;64964;48.694;21.206;2023-02-15T02:07:53;99471.72;;;1.56;67.10
76195;BME280;64964;48.694;21.206;2023-02-15T02:10:22;99473.47;;;1.56;67.14
76195;BME280;64964;48.694;21.206;2023-02-15T02:12:49;99477.84;;;1.55;67.14
76195;BME280;64964;48.694;21.206;2023-02-15T02:15:16;99472.63;;;1.55;66.72
76195;BME280;64964;48.694;21.206;2023-02-15T02:17:57;99476.31;;;1.51;67.66
76195;BME280;64964;48.694;21.206;2023-02-15T02:32:29;99462.19;;;1.38;68.58
76195;BME280;64964;48.694;21.206;2023-02-15T02:43:33;99468.09;;;1.41;68.68
76195;BME280;64964;48.694;21.206;2023-02-15T02:46:17;99474.13;;;1.42;68.53
76195;BME280;64964;48.694;21.206;2023-02-15T02:48:46;99466.25;;;1.43;67.43
76195;BME280;64964;48.694;21.206;2023-02-15T02:51:13;99474.84;;;1.45;67.74
76195;BME280;64964;48.694;21.206;2023-02-15T02:53:39;99477.44;;;1.45;67.85
76195;BME280;64964;48.694;21.206;2023-02-15T02:56:29;99480.13;;;1.44;67.79
76195;BME280;64964;48.694;21.206;2023-02-15T02:59:06;99480.28;;;1.41;68.65
76195;BME280;64964;48.694;21.206;2023-02-15T03:02:02;99481.91;;;1.43;68.49
76195;BME280;64964;48.694;21.206;2023-02-15T03:04:36;99485.34;;;1.44;68.94
76195;BME280;64964;48.694;21.206;2023-02-15T03:07:10;99482.75;;;1.44;67.98
76195;BME280;64964;48.694;21.206;2023-02-15T03:09:42;99484.41;;;1.45;68.38
76195;BME280;64964;48.694;21.206;2023-02-15T03:12:34;99485.34;;;1.44;69.23
76195;BME280;64964;48.694;21.206;2023-02-15T03:15:19;99477.38;;;1.47;68.33
76195;BME280;64964;48.694;21.206;2023-02-15T03:17:49;99482.75;;;1.44;67.94
76195;BME280;64964;48.694;21.206;2023-02-15T03:20:21;99481.06;;;1.43;68.46
76195;BME280;64964;48.694;21.206;2023-02-15T03:23:25;99487.16;;;1.42;68.83
76195;BME280;64964;48.694;21.206;2023-02-15T03:26:00;99478.59;;;1.40;67.62
76195;BME280;64964;48.694;21.206;2023-02-15T03:28:35;99484.78;;;1.37;68.40
76195;BME280;64964;48.694;21.206;2023-02-15T03:31:04;99477.91;;;1.36;68.06
76195;BME280;64964;48.694;21.206;2023-02-15T03:33:31;99481.66;;;1.31;69.23
76195;BME280;64964;48.694;21.206;2023-02-15T03:41:45;99476.72;;;1.24;68.47
76195;BME280;64964;48.694;21.206;2023-02-15T03:44:16;99471.47;;;1.26;68.10
76195;BME280;64964;48.694;21.206;2023-02-15T03:46:48;99471.69;;;1.21;68.63
76195;BME280;64964;48.694;21.206;2023-02-15T03:49:26;99477.78;;;1.20;68.48
76195;BME280;64964;48.694;21.206;2023-02-15T03:51:54;99476.94;;;1.20;69.00
76195;BME280;64964;48.694;21.206;2023-02-15T03:54:27;99472.75;;;1.17;68.75
76195;BME280;64964;48.694;21.206;2023-02-15T03:57:25;99470.28;;;1.14;68.31
76195;BME280;64964;48.694;21.206;2023-02-15T04:00:21;99467.91;;;1.10;68.40
76195;BME280;64964;48.694;21.206;2023-02-15T04:05:41;99481.28;;;1.02;68.77
76195;BME280;64964;48.694;21.206;2023-02-15T04:08:07;99478.91;;;0.97;69.07
76195;BME280;64964;48.694;21.206;2023-02-15T04:10:32;99477.13;;;0.98;68.78
76195;BME280;64964;48.694;21.206;2023-02-15T04:13:17;99479.97;;;0.93;69.79
76195;BME280;64964;48.694;21.206;2023-02-15T04:15:42;99478.28;;;0.92;69.15
76195;BME280;64964;48.694;21.206;2023-02-15T04:18:26;99483.53;;;0.91;69.11
76195;BME280;64964;48.694;21.206;2023-02-15T04:21:10;99479.41;;;0.87;69.93
76195;BME280;64964;48.694;21.206;2023-02-15T04:23:53;99482.09;;;0.85;69.31
76195;BME280;64964;48.694;21.206;2023-02-15T04:26:37;99483.00;;;0.84;69.15
76195;BME280;64964;48.694;21.206;2023-02-15T04:29:03;99475.41;;;0.80;71.21
76195;BME280;64964;48.694;21.206;2023-02-15T04:31:28;99490.16;;;0.79;70.31
76195;BME280;64964;48.694;21.206;2023-02-15T04:33:53;99480.63;;;0.80;69.24
76195;BME280;64964;48.694;21.206;2023-02-15T04:36:19;99480.69;;;0.78;69.96
76195;BME280;64964;48.694;21.206;2023-02-15T04:38:44;99483.38;;;0.77;69.73
76195;BME280;64964;48.694;21.206;2023-02-15T04:41:09;99481.50;;;0.79;69.67
76195;BME280;64964;48.694;21.206;2023-02-15T04:43:37;99479.06;;;0.76;69.97
76195;BME280;64964;48.694;21.206;2023-02-15T04:46:02;99486.81;;;0.77;69.30
76195;BME280;64964;48.694;21.206;2023-02-15T04:48:28;99481.72;;;0.74;70.08
76195;BME280;64964;48.694;21.206;2023-02-15T04:50:53;99490.53;;;0.71;69.50
76195;BME280;64964;48.694;21.206;2023-02-15T04:53:18;99490.59;;;0.70;69.54
76195;BME280;64964;48.694;21.206;2023-02-15T04:55:44;99489.75;;;0.69;69.68
76195;BME280;64964;48.694;21.206;2023-02-15T04:58:09;99490.91;;;0.64;70.72
76195;BME280;64964;48.694;21.206;2023-02-15T05:00:34;99489.13;;;0.64;70.27
76195;BME280;64964;48.694;21.206;2023-02-15T05:03:00;99489.25;;;0.61;71.19
76195;BME280;64964;48.694;21.206;2023-02-15T05:05:25;99491.81;;;0.63;70.12
76195;BME280;64964;48.694;21.206;2023-02-15T05:07:51;99500.59;;;0.60;70.22
76195;BME280;64964;48.694;21.206;2023-02-15T05:10:16;99492.78;;;0.60;70.16
76195;BME280;64964;48.694;21.206;2023-02-15T05:12:41;99485.94;;;0.58;70.83
76195;BME280;64964;48.694;21.206;2023-02-15T05:15:07;99499.81;;;0.58;70.53
76195;BME280;64964;48.694;21.206;2023-02-15T05:17:33;99494.69;;;0.57;70.28
76195;BME280;64964;48.694;21.206;2023-02-15T05:19:58;99507.69;;;0.57;70.31
76195;BME280;64964;48.694;21.206;2023-02-15T05:22:24;99506.84;;;0.56;69.81
76195;BME280;64964;48.694;21.206;2023-02-15T05:24:49;99512.13;;;0.55;70.37
76195;BME280;64964;48.694;21.206;2023-02-15T05:27:33;99509.59;;;0.53;71.57
76195;BME280;64964;48.694;21.206;2023-02-15T05:30:17;99512.19;;;0.53;70.21
76195;BME280;64964;48.694;21.206;2023-02-15T05:32:42;99515.63;;;0.54;70.80
76195;BME280;64964;48.694;21.206;2023-02-15T05:35:13;99512.25;;;0.52;71.20
76195;BME280;64964;48.694;21.206;2023-02-15T05:37:40;99512.25;;;0.52;70.97
76195;BME280;64964;48.694;21.206;2023-02-15T05:40:06;99513.19;;;0.51;71.49
76195;BME280;64964;48.694;21.206;2023-02-15T05:42:32;99512.31;;;0.50;70.97
76195;BME280;64964;48.694;21.206;2023-02-15T05:44:57;99515.00;;;0.48;70.83
76195;BME280;64964;48.694;21.206;2023-02-15T05:47:23;99518.44;;;0.49;70.50
76195;BME280;64964;48.694;21.206;2023-02-15T05:49:48;99519.34;;;0.48;70.37
76195;BME280;64964;48.694;21.206;2023-02-15T05:52:13;99521.03;;;0.49;70.20
76195;BME280;64964;48.694;21.206;2023-02-15T05:54:39;99521.03;;;0.49;70.21
76195;BME280;64964;48.694;21.206;2023-02-15T05:57:04;99521.00;;;0.51;70.32
76195;BME280;64964;48.694;21.206;2023-02-15T05:59:29;99522.72;;;0.50;70.57
76195;BME280;64964;48.694;21.206;2023-02-15T06:01:55;99525.19;;;0.53;70.78
76195;BME280;64964;48.694;21.206;2023-02-15T06:04:20;99521.84;;;0.51;71.59
76195;BME280;64964;48.694;21.206;2023-02-15T06:06:46;99530.41;;;0.53;70.76
76195;BME280;64964;48.694;21.206;2023-02-15T06:09:12;99533.72;;;0.57;70.31
76195;BME280;64964;48.694;21.206;2023-02-15T06:11:38;99539.72;;;0.59;70.41
76195;BME280;64964;48.694;21.206;2023-02-15T06:14:03;99533.50;;;0.61;70.60
76195;BME280;64964;48.694;21.206;2023-02-15T06:16:28;99541.31;;;0.61;71.01
76195;BME280;64964;48.694;21.206;2023-02-15T06:18:54;99549.00;;;0.64;70.91
76195;BME280;64964;48.694;21.206;2023-02-15T06:21:19;99546.19;;;0.69;70.40
76195;BME280;64964;48.694;21.206;2023-02-15T06:23:44;99552.09;;;0.72;70.60
76195;BME280;64964;48.694;21.206;2023-02-15T06:26:10;99555.31;;;0.78;70.32
76195;BME280;64964;48.694;21.206;2023-02-15T06:28:35;99551.66;;;0.82;70.38
76195;BME280;64964;48.694;21.206;2023-02-15T06:31:02;99557.50;;;0.87;69.97
76195;BME280;64964;48.694;21.206;2023-02-15T06:33:28;99558.28;;;0.89;69.28
76195;BME280;64964;48.694;21.206;2023-02-15T06:35:55;99550.25;;;0.93;69.78
76195;BME280;64964;48.694;21.206;2023-02-15T06:38:21;99550.41;;;0.90;69.79
76195;BME280;64964;48.694;21.206;2023-02-15T06:40:47;99558.00;;;0.95;70.05
76195;BME280;64964;48.694;21.206;2023-02-15T06:43:12;99553.50;;;0.98;69.91
76195;BME280;64964;48.694;21.206;2023-02-15T06:45:38;99554.06;;;1.05;69.67
76195;BME280;64964;48.694;21.206;2023-02-15T06:48:03;99556.47;;;1.10;69.82
76195;BME280;64964;48.694;21.206;2023-02-15T06:50:32;99548.22;;;1.19;69.86
76195;BME280;64964;48.694;21.206;2023-02-15T06:52:58;99550.50;;;1.25;70.21
76195;BME280;64964;48.694;21.206;2023-02-15T06:55:24;99551.91;;;1.32;69.56
76195;BME280;64964;48.694;21.206;2023-02-15T06:57:49;99558.53;;;1.39;69.25
76195;BME280;64964;48.694;21.206;2023-02-15T07:00:15;99558.22;;;1.45;69.45
76195;BME280;64964;48.694;21.206;2023-02-15T07:02:40;99561.25;;;1.55;69.25
76195;BME280;64964;48.694;21.206;2023-02-15T07:05:06;99561.63;;;1.65;69.04
76195;BME280;64964;48.694;21.206;2023-02-15T07:07:31;99559.28;;;1.78;68.80
76195;BME280;64964;48.694;21.206;2023-02-15T07:09:57;99561.50;;;1.85;68.60
76195;BME280;64964;48.694;21.206;2023-02-15T07:12:22;99557.50;;;1.95;68.31
76195;BME280;64964;48.694;21.206;2023-02-15T07:15:07;99559.59;;;2.06;68.07
76195;BME280;64964;48.694;21.206;2023-02-15T07:17:35;99551.44;;;2.12;68.20
76195;BME280;64964;48.694;21.206;2023-02-15T07:20:00;99547.50;;;2.21;67.94
76195;BME280;64964;48.694;21.206;2023-02-15T07:22:26;99551.34;;;2.31;67.88
76195;BME280;64964;48.694;21.206;2023-02-15T07:24:51;99547.31;;;2.41;67.53
76195;BME280;64964;48.694;21.206;2023-02-15T07:27:19;99547.72;;;2.51;67.51
76195;BME280;64964;48.694;21.206;2023-02-15T07:29:44;99543.69;;;2.61;67.26
76195;BME280;64964;48.694;21.206;2023-02-15T07:32:10;99544.03;;;2.71;66.97
76195;BME280;64964;48.694;21.206;2023-02-15T07:34:35;99544.41;;;2.81;67.02
76195;BME280;64964;48.694;21.206;2023-02-15T07:37:01;99534.13;;;2.93;66.74
76195;BME280;64964;48.694;21.206;2023-02-15T07:39:26;99534.09;;;3.09;66.52
76195;BME280;64964;48.694;21.206;2023-02-15T07:41:51;99535.81;;;3.26;66.19
76195;BME280;64964;48.694;21.206;2023-02-15T07:44:17;99530.28;;;3.46;65.71
76195;BME280;64964;48.694;21.206;2023-02-15T07:46:42;99528.88;;;3.71;65.26
76195;BME280;64964;48.694;21.206;2023-02-15T07:49:07;99535.03;;;4.00;64.47
76195;BME280;64964;48.694;21.206;2023-02-15T07:51:33;99528.34;;;4.39;63.84
76195;BME280;64964;48.694;21.206;2023-02-15T07:53:58;99525.28;;;4.89;62.65
76195;BME280;64964;48.694;21.206;2023-02-15T07:56:24;99515.72;;;5.57;61.34
76195;BME280;64964;48.694;21.206;2023-02-15T07:58:49;99511.34;;;6.48;59.67
76195;BME280;64964;48.694;21.206;2023-02-15T08:01:19;99512.91;;;7.72;58.08
76195;BME280;64964;48.694;21.206;2023-02-15T08:03:45;99513.81;;;9.09;55.91
76195;BME280;64964;48.694;21.206;2023-02-15T08:06:10;99511.50;;;10.54;53.77
76195;BME280;64964;48.694;21.206;2023-02-15T08:08:40;99514.31;;;12.01;51.32
76195;BME280;64964;48.694;21.206;2023-02-15T08:14:09;99511.53;;;14.99;39.04
76195;BME280;64964;48.694;21.206;2023-02-15T08:16:43;99512.25;;;16.17;43.13
76195;BME280;64964;48.694;21.206;2023-02-15T08:19:26;99509.16;;;17.16;36.84
76195;BME280;64964;48.694;21.206;2023-02-15T08:22:00;99516.13;;;17.57;32.38
76195;BME280;64964;48.694;21.206;2023-02-15T08:24:28;99521.59;;;18.32;37.63
76195;BME280;64964;48.694;21.206;2023-02-15T08:26:55;99521.09;;;18.96;37.96
76195;BME280;64964;48.694;21.206;2023-02-15T08:29:23;99509.47;;;19.40;35.39
76195;BME280;64964;48.694;21.206;2023-02-15T08:31:52;99510.47;;;19.75;35.78
76195;BME280;64964;48.694;21.206;2023-02-15T08:34:19;99518.31;;;20.20;34.97
76195;BME280;64964;48.694;21.206;2023-02-15T08:36:44;99515.72;;;20.54;33.11
76195;BME280;64964;48.694;21.206;2023-02-15T08:39:10;99521.75;;;20.63;32.21
76195;BME280;64964;48.694;21.206;2023-02-15T08:41:37;99515.31;;;20.92;32.08
76195;BME280;64964;48.694;21.206;2023-02-15T08:44:05;99515.53;;;21.32;32.42
76195;BME280;64964;48.694;21.206;2023-02-15T08:46:33;99512.72;;;21.67;31.76
76195;BME280;64964;48.694;21.206;2023-02-15T08:49:00;99511.31;;;21.91;31.18
76195;BME280;64964;48.694;21.206;2023-02-15T08:51:27;99512.88;;;20.13;26.15
76195;BME280;64964;48.694;21.206;2023-02-15T08:53:56;99516.09;;;18.93;28.35
76195;BME280;64964;48.694;21.206;2023-02-15T08:56:24;99515.31;;;19.14;30.73
76195;BME280;64964;48.694;21.206;2023-02-15T08:58:51;99513.81;;;19.26;31.09
76195;BME280;64964;48.694;21.206;2023-02-15T09:01:20;99514.06;;;18.80;29.88
76195;BME280;64964;48.694;21.206;2023-02-15T09:03:47;99512.06;;;18.30;31.16
76195;BME280;64964;48.694;21.206;2023-02-15T09:06:13;99508.19;;;18.47;31.35
76195;BME280;64964;48.694;21.206;2023-02-15T09:08:39;99506.41;;;18.92;31.30
76195;BME280;64964;48.694;21.206;2023-02-15T09:11:19;99510.63;;;19.16;28.19
76195;BME280;64964;48.694;21.206;2023-02-15T09:13:52;99498.84;;;19.32;29.27
76195;BME280;64964;48.694;21.206;2023-02-15T09:16:19;99504.28;;;19.60;30.24
76195;BME280;64964;48.694;21.206;2023-02-15T09:18:44;99498.53;;;19.99;30.55
76195;BME280;64964;48.694;21.206;2023-02-15T09:21:12;99497.41;;;20.43;29.19
76195;BME280;64964;48.694;21.206;2023-02-15T09:23:39;99491.66;;;20.74;29.42
76195;BME280;64964;48.694;21.206;2023-02-15T09:26:07;99494.25;;;21.02;29.35
76195;BME280;64964;48.694;21.206;2023-02-15T09:28:34;99495.31;;;21.08;29.11
76195;BME280;64964;48.694;21.206;2023-02-15T09:33:34;99495.97;;;20.40;28.99
76195;BME280;64964;48.694;21.206;2023-02-15T09:36:00;99498.25;;;20.15;28.57
76195;BME280;64964;48.694;21.206;2023-02-15T09:38:25;99490.75;;;18.36;28.18
76195;BME280;64964;48.694;21.206;2023-02-15T09:41:00;99496.44;;;16.87;30.13
76195;BME280;64964;48.694;21.206;2023-02-15T09:49:21;99480.91;;;14.35;34.15
76195;BME280;64964;48.694;21.206;2023-02-15T09:52:33;99488.09;;;14.16;35.29
76195;BME280;64964;48.694;21.206;2023-02-15T10:09:25;99467.78;;;14.41;34.90
76195;BME280;64964;48.694;21.206;2023-02-15T10:40:06;99456.84;;;18.58;29.73
76195;BME280;64964;48.694;21.206;2023-02-15T10:42:43;99460.56;;;18.87;30.23
76195;BME280;64964;48.694;21.206;2023-02-15T11:01:44;99433.00;;;16.34;32.27
76195;BME280;64964;48.694;21.206;2023-02-15T11:07:19;99427.16;;;17.63;31.93
76195;BME280;64964;48.694;21.206;2023-02-15T11:09:53;99430.34;;;18.34;30.74
76195;BME280;64964;48.694;21.206;2023-02-15T11:12:24;99428.91;;;19.12;30.59
76195;BME280;64964;48.694;21.206;2023-02-15T11:17:45;99419.31;;;19.03;28.47
76195;BME280;64964;48.694;21.206;2023-02-15T11:20:23;99414.66;;;18.90;29.02
76195;BME280;64964;48.694;21.206;2023-02-15T11:22:51;99408.25;;;18.91;30.03
76195;BME280;64964;48.694;21.206;2023-02-15T11:25:23;99412.38;;;19.08;29.51
76195;BME280;64964;48.694;21.206;2023-02-15T11:27:50;99406.78;;;18.59;29.57
76195;BME280;64964;48.694;21.206;2023-02-15T11:30:25;99401.59;;;17.83;29.76
76195;BME280;64964;48.694;21.206;2023-02-15T11:32:58;99406.47;;;16.40;31.12
76195;BME280;64964;48.694;21.206;2023-02-15T11:35:39;99399.72;;;14.57;33.19
76195;BME280;64964;48.694;21.206;2023-02-15T11:38:15;99398.94;;;14.73;33.85
76195;BME280;64964;48.694;21.206;2023-02-15T11:40:53;99393.13;;;14.35;34.66
76195;BME280;64964;48.694;21.206;2023-02-15T11:46:13;99388.50;;;14.87;35.08
76195;BME280;64964;48.694;21.206;2023-02-15T11:48:40;99388.88;;;14.92;34.87
76195;BME280;64964;48.694;21.206;2023-02-15T11:51:26;99385.78;;;14.37;34.75
76195;BME280;64964;48.694;21.206;2023-02-15T11:53:54;99384.75;;;13.95;35.36
76195;BME280;64964;48.694;21.206;2023-02-15T11:56:24;99392.00;;;13.59;35.44
76195;BME280;64964;48.694;21.206;2023-02-15T11:59:09;99388.34;;;13.07;36.77
76195;BME280;64964;48.694;21.206;2023-02-15T12:01:46;99376.56;;;12.91;37.65
76195;BME280;64964;48.694;21.206;2023-02-15T12:07:03;99377.78;;;12.79;37.34
76195;BME280;64964;48.694;21.206;2023-02-15T12:09:46;99371.78;;;12.50;38.41
76195;BME280;64964;48.694;21.206;2023-02-15T12:12:24;99361.13;;;12.32;39.00
76195;BME280;64964;48.694;21.206;2023-02-15T12:15:11;99350.41;;;12.33;38.88
76195;BME280;64964;48.694;21.206;2023-02-15T12:22:46;99352.22;;;11.95;39.94
76195;BME280;64964;48.694;21.206;2023-02-15T12:25:22;99350.78;;;11.54;40.88
76195;BME280;64964;48.694;21.206;2023-02-15T12:27:50;99340.34;;;11.23;41.50
76195;BME280;64964;48.694;21.206;2023-02-15T12:30:21;99335.59;;;10.69;42.97
76195;BME280;64964;48.694;21.206;2023-02-15T12:32:53;99341.28;;;10.24;43.57
76195;BME280;64964;48.694;21.206;2023-02-15T12:35:29;99329.59;;;10.17;43.70
76195;BME280;64964;48.694;21.206;2023-02-15T12:37:58;99334.69;;;9.99;44.91
76195;BME280;64964;48.694;21.206;2023-02-15T12:40:29;99332.03;;;10.30;43.93
76195;BME280;64964;48.694;21.206;2023-02-15T12:42:55;99336.25;;;10.52;43.66
76195;BME280;64964;48.694;21.206;2023-02-15T12:45:32;99333.50;;;10.72;43.59
76195;BME280;64964;48.694;21.206;2023-02-15T12:50:37;99326.00;;;10.97;43.16
76195;BME280;64964;48.694;21.206;2023-02-15T12:53:11;99332.41;;;10.94;42.90
76195;BME280;64964;48.694;21.206;2023-02-15T12:55:37;99325.75;;;11.00;42.57
76195;BME280;64964;48.694;21.206;2023-02-15T12:58:21;99322.25;;;11.00;42.63
76195;BME280;64964;48.694;21.206;2023-02-15T13:01:09;99322.94;;;10.72;44.63
76195;BME280;64964;48.694;21.206;2023-02-15T13:03:50;99315.56;;;10.66;43.63
76195;BME280;64964;48.694;21.206;2023-02-15T13:06:20;99311.22;;;10.65;43.33
76195;BME280;64964;48.694;21.206;2023-02-15T13:08:48;99312.19;;;10.74;43.46
76195;BME280;64964;48.694;21.206;2023-02-15T13:11:21;99315.56;;;10.76;43.55
76195;BME280;64964;48.694;21.206;2023-02-15T13:13:54;99308.88;;;10.82;43.50
76195;BME280;64964;48.694;21.206;2023-02-15T13:16:39;99305.66;;;10.78;43.72
76195;BME280;64964;48.694;21.206;2023-02-15T13:19:29;99298.44;;;10.80;43.09
76195;BME280;64964;48.694;21.206;2023-02-15T13:21:57;99301.78;;;10.72;43.59
76195;BME280;64964;48.694;21.206;2023-02-15T13:24:27;99298.84;;;10.76;43.17
76195;BME280;64964;48.694;21.206;2023-02-15T13:26:55;99296.91;;;10.68;43.48
76195;BME280;64964;48.694;21.206;2023-02-15T13:29:31;99289.38;;;10.54;43.97
76195;BME280;64964;48.694;21.206;2023-02-15T13:32:06;99287.84;;;10.51;43.81
76195;BME280;64964;48.694;21.206;2023-02-15T13:34:35;99289.88;;;10.28;44.55
76195;BME280;64964;48.694;21.206;2023-02-15T13:37:32;99283.38;;;10.02;45.69
76195;BME280;64964;48.694;21.206;2023-02-15T13:42:38;99282.28;;;10.04;45.19
76195;BME280;64964;48.694;21.206;2023-02-15T13:45:30;99280.31;;;9.96;46.31
76195;BME280;64964;48.694;21.206;2023-02-15T13:51:03;99281.09;;;9.57;46.33
76195;BME280;64964;48.694;21.206;2023-02-15T13:53:43;99273.69;;;9.20;47.73
76195;BME280;64964;48.694;21.206;2023-02-15T14:01:52;99266.91;;;9.06;47.67
76195;BME280;64964;48.694;21.206;2023-02-15T14:22:41;99276.06;;;8.49;49.02
76195;BME280;64964;48.694;21.206;2023-02-15T14:30:32;99266.72;;;8.22;50.41
76195;BME280;64964;48.694;21.206;2023-02-15T14:35:41;99264.81;;;8.24;49.62
76195;BME280;64964;48.694;21.206;2023-02-15T14:38:43;99265.06;;;8.10;50.85
76195;BME280;64964;48.694;21.206;2023-02-15T14:41:14;99257.44;;;8.07;50.45
76195;BME280;64964;48.694;21.206;2023-02-15T14:46:19;99259.47;;;7.92;50.76
76195;BME280;64964;48.694;21.206;2023-02-15T14:49:10;99256.03;;;7.92;50.50
76195;BME280;64964;48.694;21.206;2023-02-15T14:56:43;99262.63;;;7.75;51.74
76195;BME280;64964;48.694;21.206;2023-02-15T15:01:38;99253.03;;;7.52;52.62
76195;BME280;64964;48.694;21.206;2023-02-15T15:04:23;99261.66;;;7.42;53.94
76195;BME280;64964;48.694;21.206;2023-02-15T15:07:18;99260.66;;;7.21;55.55
76195;BME280;64964;48.694;21.206;2023-02-15T15:09:57;99263.28;;;7.21;54.72
76195;BME280;64964;48.694;21.206;2023-02-15T15:14:54;99257.06;;;7.22;53.64
76195;BME280;64964;48.694;21.206;2023-02-15T15:20:37;99248.19;;;7.01;55.23
76195;BME280;64964;48.694;21.206;2023-02-15T15:25:45;99256.38;;;6.85;54.50
76195;BME280;64964;48.694;21.206;2023-02-15T15:34:17;99263.09;;;6.54;57.25
76195;BME280;64964;48.694;21.206;2023-02-15T15:50:41;99254.25;;;6.31;55.46
76195;BME280;64964;48.694;21.206;2023-02-15T15:53:18;99251.25;;;6.24;56.46
76195;BME280;64964;48.694;21.206;2023-02-15T15:55:47;99251.47;;;6.21;55.72
76195;BME280;64964;48.694;21.206;2023-02-15T15:58:16;99248.22;;;6.17;55.89
76195;BME280;64964;48.694;21.206;2023-02-15T16:03:29;99243.75;;;6.07;57.21
76195;BME280;64964;48.694;21.206;2023-02-15T16:05:55;99244.78;;;6.04;55.83
76195;BME280;64964;48.694;21.206;2023-02-15T16:08:33;99244.19;;;6.01;57.28
76195;BME280;64964;48.694;21.206;2023-02-15T16:11:00;99245.47;;;5.95;55.63
76195;BME280;64964;48.694;21.206;2023-02-15T16:13:33;99253.34;;;5.95;55.81
76195;BME280;64964;48.694;21.206;2023-02-15T16:15:58;99256.25;;;5.90;55.66
76195;BME280;64964;48.694;21.206;2023-02-15T16:18:26;99244.63;;;5.82;55.98
76195;BME280;64964;48.694;21.206;2023-02-15T16:20:57;99252.91;;;5.75;56.42
76195;BME280;64964;48.694;21.206;2023-02-15T16:28:53;99247.84;;;5.48;57.42
76195;BME280;64964;48.694;21.206;2023-02-15T16:31:19;99249.94;;;5.43;56.91
76195;BME280;64964;48.694;21.206;2023-02-15T16:33:48;99248.25;;;5.42;57.31
76195;BME280;64964;48.694;21.206;2023-02-15T16:36:22;99252.78;;;5.40;57.20
76195;BME280;64964;48.694;21.206;2023-02-15T16:41:27;99256.44;;;5.38;56.70
76195;BME280;64964;48.694;21.206;2023-02-15T16:43:56;99249.84;;;5.32;56.93
76195;BME280;64964;48.694;21.206;2023-02-15T16:46:38;99254.66;;;5.25;57.14